sensor_id;sensor_type;location;lat;lon;timestamp;temperature;humidity
18741;DHT22;9499;52.472;13.448;2023-04-06T00:00:01;5.00;99.90
18741;DHT22;9499;52.472;13.448;2023-04-06T00:02:29;5.00;99.90
18741;DHT22;9499;52.472;13.448;2023-04-06T00:04:55;4.90;99.90
18741;DHT22;9499;52.472;13.448;2023-04-06T00:07:22;4.90;1.00
18741;DHT22;9499;52.472;13.448;2023-04-06T00:09:48;4.90;1.00
18741;DHT22;9499;52.472;13.448;2023-04-06T00:12:16;4.80;1.00
18741;DHT22;9499;52.472;13.448;2023-04-06T00:14:43;4.80;1.00
18741;DHT22;9499;52.472;13.448;2023-04-06T00:17:09;4.80;1.00
18741;DHT22;9499;52.472;13.448;2023-04-06T00:19:36;4.80;1.00
18741;DHT22;9499;52.472;13.448;2023-04-06T00:22:03;4.80;4.90
18741;DHT22;9499;52.472;13.448;2023-04-06T00:24:29;4.80;1.00
18741;DHT22;9499;52.472;13.448;2023-04-06T00:26:56;4.80;1.00
18741;DHT22;9499;52.472;13.448;2023-04-06T00:29:24;4.80;37.90
18741;DHT22;9499;52.472;13.448;2023-04-06T00:31:50;4.80;99.90
18741;DHT22;9499;52.472;13.448;2023-04-06T00:34:17;4.80;99.90
18741;DHT22;9499;52.472;13.448;2023-04-06T00:36:43;4.80;1.00
18741;DHT22;9499;52.472;13.448;2023-04-06T00:39:10;4.80;40.10
18741;DHT22;9499;52.472;13.448;2023-04-06T00:41:36;4.80;12.60
18741;DHT22;9499;52.472;13.448;2023-04-06T00:44:03;4.70;99.90
18741;DHT22;9499;52.472;13.448;2023-04-06T00:46:31;4.70;99.90
18741;DHT22;9499;52.472;13.448;2023-04-06T00:48:57;4.60;1.00
18741;DHT22;9499;52.472;13.448;2023-04-06T00:51:24;4.60;1.00
18741;DHT22;9499;52.472;13.448;2023-04-06T00:53:50;4.60;1.00
18741;DHT22;9499;52.472;13.448;2023-04-06T00:56:17;4.60;1.00
18741;DHT22;9499;52.472;13.448;2023-04-06T00:58:43;4.60;1.00
18741;DHT22;9499;52.472;13.448;2023-04-06T01:01:10;4.60;1.00
18741;DHT22;9499;52.472;13.448;2023-04-06T01:03:38;4.60;1.00
18741;DHT22;9499;52.472;13.448;2023-04-06T01:06:04;4.60;1.00
18741;DHT22;9499;52.472;13.448;2023-04-06T01:08:31;4.50;1.00
18741;DHT22;9499;52.472;13.448;2023-04-06T01:10:59;4.50;1.00
18741;DHT22;9499;52.472;13.448;2023-04-06T01:13:26;4.50;1.00
18741;DHT22;9499;52.472;13.448;2023-04-06T01:15:53;4.50;1.00
18741;DHT22;9499;52.472;13.448;2023-04-06T01:18:25;4.50;1.00
18741;DHT22;9499;52.472;13.448;2023-04-06T01:20:53;4.50;1.00
18741;DHT22;9499;52.472;13.448;2023-04-06T01:23:21;4.40;1.00
18741;DHT22;9499;52.472;13.448;2023-04-06T01:25:49;4.40;1.00
18741;DHT22;9499;52.472;13.448;2023-04-06T01:28:15;4.50;1.00
18741;DHT22;9499;52.472;13.448;2023-04-06T01:30:42;4.40;1.00
18741;DHT22;9499;52.472;13.448;2023-04-06T01:33:08;4.40;1.00
18741;DHT22;9499;52.472;13.448;2023-04-06T01:35:34;4.40;1.00
18741;DHT22;9499;52.472;13.448;2023-04-06T01:38:01;4.40;1.00
18741;DHT22;9499;52.472;13.448;2023-04-06T01:40:29;4.40;1.00
18741;DHT22;9499;52.472;13.448;2023-04-06T01:42:56;4.40;1.00
18741;DHT22;9499;52.472;13.448;2023-04-06T01:45:22;4.40;1.00
18741;DHT22;9499;52.472;13.448;2023-04-06T01:47:48;4.30;1.00
18741;DHT22;9499;52.472;13.448;2023-04-06T01:50:15;4.30;1.00
18741;DHT22;9499;52.472;13.448;2023-04-06T01:52:41;4.30;1.00
18741;DHT22;9499;52.472;13.448;2023-04-06T01:55:08;4.30;1.00
18741;DHT22;9499;52.472;13.448;2023-04-06T01:57:36;4.20;1.00
18741;DHT22;9499;52.472;13.448;2023-04-06T02:00:03;4.20;1.00
18741;DHT22;9499;52.472;13.448;2023-04-06T02:02:30;4.10;1.00
18741;DHT22;9499;52.472;13.448;2023-04-06T02:04:57;4.10;1.00
18741;DHT22;9499;52.472;13.448;2023-04-06T02:07:23;4.10;1.00
18741;DHT22;9499;52.472;13.448;2023-04-06T02:09:53;4.20;1.00
18741;DHT22;9499;52.472;13.448;2023-04-06T02:12:20;4.20;1.00
18741;DHT22;9499;52.472;13.448;2023-04-06T02:14:48;4.10;1.00
18741;DHT22;9499;52.472;13.448;2023-04-06T02:17:14;4.10;1.00
18741;DHT22;9499;52.472;13.448;2023-04-06T02:19:41;4.00;1.00
18741;DHT22;9499;52.472;13.448;2023-04-06T02:22:07;4.00;99.90
18741;DHT22;9499;52.472;13.448;2023-04-06T02:24:34;4.00;99.90
18741;DHT22;9499;52.472;13.448;2023-04-06T02:27:00;4.00;99.90
18741;DHT22;9499;52.472;13.448;2023-04-06T02:29:27;4.00;99.90
18741;DHT22;9499;52.472;13.448;2023-04-06T02:31:55;4.00;99.90
18741;DHT22;9499;52.472;13.448;2023-04-06T02:34:21;4.00;99.90
18741;DHT22;9499;52.472;13.448;2023-04-06T02:36:48;4.00;99.90
18741;DHT22;9499;52.472;13.448;2023-04-06T02:39:14;4.00;99.90
18741;DHT22;9499;52.472;13.448;2023-04-06T02:41:41;4.00;99.90
18741;DHT22;9499;52.472;13.448;2023-04-06T02:44:08;3.90;1.00
18741;DHT22;9499;52.472;13.448;2023-04-06T02:46:35;3.90;1.00
18741;DHT22;9499;52.472;13.448;2023-04-06T02:49:03;3.90;1.00
18741;DHT22;9499;52.472;13.448;2023-04-06T02:51:29;3.80;1.00
18741;DHT22;9499;52.472;13.448;2023-04-06T02:53:56;3.80;1.00
18741;DHT22;9499;52.472;13.448;2023-04-06T02:56:22;3.70;1.00
18741;DHT22;9499;52.472;13.448;2023-04-06T02:58:49;3.70;1.00
18741;DHT22;9499;52.472;13.448;2023-04-06T03:01:15;3.70;1.00
18741;DHT22;9499;52.472;13.448;2023-04-06T03:03:42;3.60;1.00
18741;DHT22;9499;52.472;13.448;2023-04-06T03:06:10;3.60;1.00
18741;DHT22;9499;52.472;13.448;2023-04-06T03:08:36;3.60;1.00
18741;DHT22;9499;52.472;13.448;2023-04-06T03:11:03;3.50;1.00
18741;DHT22;9499;52.472;13.448;2023-04-06T03:13:29;3.50;1.00
18741;DHT22;9499;52.472;13.448;2023-04-06T03:15:56;3.40;7.20
18741;DHT22;9499;52.472;13.448;2023-04-06T03:18:23;3.40;15.60
18741;DHT22;9499;52.472;13.448;2023-04-06T03:20:50;3.40;23.40
18741;DHT22;9499;52.472;13.448;2023-04-06T03:23:20;3.40;22.80
18741;DHT22;9499;52.472;13.448;2023-04-06T03:25:47;3.40;69.10
18741;DHT22;9499;52.472;13.448;2023-04-06T03:28:13;3.40;41.80
18741;DHT22;9499;52.472;13.448;2023-04-06T03:30:39;3.30;37.40
18741;DHT22;9499;52.472;13.448;2023-04-06T03:33:06;3.30;99.90
18741;DHT22;9499;52.472;13.448;2023-04-06T03:35:33;3.30;88.10
18741;DHT22;9499;52.472;13.448;2023-04-06T03:37:59;3.30;99.90
18741;DHT22;9499;52.472;13.448;2023-04-06T03:40:27;3.30;99.90
18741;DHT22;9499;52.472;13.448;2023-04-06T03:42:54;3.40;99.90
18741;DHT22;9499;52.472;13.448;2023-04-06T03:45:20;3.30;99.90
18741;DHT22;9499;52.472;13.448;2023-04-06T03:47:47;3.40;99.90
18741;DHT22;9499;52.472;13.448;2023-04-06T03:50:13;3.30;99.90
18741;DHT22;9499;52.472;13.448;2023-04-06T03:52:40;3.30;99.90
18741;DHT22;9499;52.472;13.448;2023-04-06T03:55:07;3.30;99.90
18741;DHT22;9499;52.472;13.448;2023-04-06T03:57:35;3.20;99.90
18741;DHT22;9499;52.472;13.448;2023-04-06T04:00:03;3.20;99.90
18741;DHT22;9499;52.472;13.448;2023-04-06T04:02:30;3.20;99.90
18741;DHT22;9499;52.472;13.448;2023-04-06T04:04:56;3.20;1.00
18741;DHT22;9499;52.472;13.448;2023-04-06T04:07:22;3.10;1.00
18741;DHT22;9499;52.472;13.448;2023-04-06T04:09:49;3.10;1.00
18741;DHT22;9499;52.472;13.448;2023-04-06T04:12:16;3.10;1.00
18741;DHT22;9499;52.472;13.448;2023-04-06T04:14:43;3.10;1.00
18741;DHT22;9499;52.472;13.448;2023-04-06T04:17:10;3.10;1.00
18741;DHT22;9499;52.472;13.448;2023-04-06T04:19:36;3.10;1.00
18741;DHT22;9499;52.472;13.448;2023-04-06T04:22:03;3.00;1.00
18741;DHT22;9499;52.472;13.448;2023-04-06T04:24:31;3.00;1.00
18741;DHT22;9499;52.472;13.448;2023-04-06T04:26:59;3.00;1.00
18741;DHT22;9499;52.472;13.448;2023-04-06T04:29:26;3.00;1.00
18741;DHT22;9499;52.472;13.448;2023-04-06T04:31:54;2.90;1.00
18741;DHT22;9499;52.472;13.448;2023-04-06T04:34:20;2.90;1.00
18741;DHT22;9499;52.472;13.448;2023-04-06T04:36:49;2.90;1.00
18741;DHT22;9499;52.472;13.448;2023-04-06T04:39:15;2.90;1.00
18741;DHT22;9499;52.472;13.448;2023-04-06T04:41:42;2.90;1.00
18741;DHT22;9499;52.472;13.448;2023-04-06T04:44:08;2.90;1.00
18741;DHT22;9499;52.472;13.448;2023-04-06T04:46:35;2.90;1.00
18741;DHT22;9499;52.472;13.448;2023-04-06T04:49:03;2.90;1.00
18741;DHT22;9499;52.472;13.448;2023-04-06T04:51:29;2.90;1.00
18741;DHT22;9499;52.472;13.448;2023-04-06T04:53:57;2.90;1.00
18741;DHT22;9499;52.472;13.448;2023-04-06T04:56:23;2.90;1.00
18741;DHT22;9499;52.472;13.448;2023-04-06T04:58:50;2.90;1.00
18741;DHT22;9499;52.472;13.448;2023-04-06T05:01:17;2.90;1.00
18741;DHT22;9499;52.472;13.448;2023-04-06T05:03:43;2.90;1.00
18741;DHT22;9499;52.472;13.448;2023-04-06T05:06:11;2.80;1.00
18741;DHT22;9499;52.472;13.448;2023-04-06T05:08:38;2.80;1.00
18741;DHT22;9499;52.472;13.448;2023-04-06T05:11:04;2.80;1.00
18741;DHT22;9499;52.472;13.448;2023-04-06T05:13:31;2.80;1.00
18741;DHT22;9499;52.472;13.448;2023-04-06T05:15:57;2.80;1.00
18741;DHT22;9499;52.472;13.448;2023-04-06T05:18:25;2.90;1.00
18741;DHT22;9499;52.472;13.448;2023-04-06T05:20:52;2.90;1.00
18741;DHT22;9499;52.472;13.448;2023-04-06T05:23:20;3.00;1.00
18741;DHT22;9499;52.472;13.448;2023-04-06T05:25:46;2.90;1.00
18741;DHT22;9499;52.472;13.448;2023-04-06T05:28:12;2.90;1.00
18741;DHT22;9499;52.472;13.448;2023-04-06T05:30:41;2.90;1.00
18741;DHT22;9499;52.472;13.448;2023-04-06T05:33:08;3.00;1.00
18741;DHT22;9499;52.472;13.448;2023-04-06T05:35:35;3.00;1.00
18741;DHT22;9499;52.472;13.448;2023-04-06T05:38:01;3.00;1.00
18741;DHT22;9499;52.472;13.448;2023-04-06T05:40:29;3.00;1.00
18741;DHT22;9499;52.472;13.448;2023-04-06T05:42:56;3.00;1.00
18741;DHT22;9499;52.472;13.448;2023-04-06T05:45:23;3.00;1.00
18741;DHT22;9499;52.472;13.448;2023-04-06T05:47:49;3.00;1.00
18741;DHT22;9499;52.472;13.448;2023-04-06T05:50:16;3.10;1.00
18741;DHT22;9499;52.472;13.448;2023-04-06T05:52:42;3.10;1.00
18741;DHT22;9499;52.472;13.448;2023-04-06T05:55:11;3.10;1.00
18741;DHT22;9499;52.472;13.448;2023-04-06T05:57:39;3.10;1.00
18741;DHT22;9499;52.472;13.448;2023-04-06T06:00:06;3.00;1.00
18741;DHT22;9499;52.472;13.448;2023-04-06T06:02:35;3.00;1.00
18741;DHT22;9499;52.472;13.448;2023-04-06T06:05:01;3.00;1.00
18741;DHT22;9499;52.472;13.448;2023-04-06T06:07:28;3.00;1.00
18741;DHT22;9499;52.472;13.448;2023-04-06T06:09:56;3.10;1.00
18741;DHT22;9499;52.472;13.448;2023-04-06T06:12:23;3.10;1.00
18741;DHT22;9499;52.472;13.448;2023-04-06T06:14:51;3.20;1.00
18741;DHT22;9499;52.472;13.448;2023-04-06T06:17:17;3.20;1.00
18741;DHT22;9499;52.472;13.448;2023-04-06T06:19:44;3.30;1.00
18741;DHT22;9499;52.472;13.448;2023-04-06T06:22:10;3.30;1.00
18741;DHT22;9499;52.472;13.448;2023-04-06T06:24:37;3.40;1.00
18741;DHT22;9499;52.472;13.448;2023-04-06T06:27:03;3.40;1.00
18741;DHT22;9499;52.472;13.448;2023-04-06T06:29:30;3.50;1.00
18741;DHT22;9499;52.472;13.448;2023-04-06T06:31:57;3.50;1.00
18741;DHT22;9499;52.472;13.448;2023-04-06T06:34:24;3.60;99.90
18741;DHT22;9499;52.472;13.448;2023-04-06T06:36:50;3.70;99.90
18741;DHT22;9499;52.472;13.448;2023-04-06T06:39:20;3.70;99.90
18741;DHT22;9499;52.472;13.448;2023-04-06T06:41:46;3.80;90.20
18741;DHT22;9499;52.472;13.448;2023-04-06T06:44:13;3.90;23.00
18741;DHT22;9499;52.472;13.448;2023-04-06T06:46:40;4.00;1.00
18741;DHT22;9499;52.472;13.448;2023-04-06T06:49:08;4.00;1.00
18741;DHT22;9499;52.472;13.448;2023-04-06T06:51:36;4.10;1.00
18741;DHT22;9499;52.472;13.448;2023-04-06T06:54:03;4.10;1.00
18741;DHT22;9499;52.472;13.448;2023-04-06T06:56:29;4.20;1.00
18741;DHT22;9499;52.472;13.448;2023-04-06T06:58:56;4.30;99.90
18741;DHT22;9499;52.472;13.448;2023-04-06T07:01:22;4.40;1.00
18741;DHT22;9499;52.472;13.448;2023-04-06T07:03:49;4.50;1.00
18741;DHT22;9499;52.472;13.448;2023-04-06T07:06:17;4.60;1.00
18741;DHT22;9499;52.472;13.448;2023-04-06T07:08:43;4.60;99.90
18741;DHT22;9499;52.472;13.448;2023-04-06T07:11:09;4.70;1.00
18741;DHT22;9499;52.472;13.448;2023-04-06T07:13:36;4.70;1.00
18741;DHT22;9499;52.472;13.448;2023-04-06T07:16:03;4.80;99.90
18741;DHT22;9499;52.472;13.448;2023-04-06T07:18:30;4.80;16.90
18741;DHT22;9499;52.472;13.448;2023-04-06T07:20:56;5.00;99.70
18741;DHT22;9499;52.472;13.448;2023-04-06T07:23:24;5.00;99.90
18741;DHT22;9499;52.472;13.448;2023-04-06T07:25:51;5.10;1.00
18741;DHT22;9499;52.472;13.448;2023-04-06T07:28:19;5.20;1.00
18741;DHT22;9499;52.472;13.448;2023-04-06T07:30:46;5.30;1.00
18741;DHT22;9499;52.472;13.448;2023-04-06T07:33:13;5.40;99.90
18741;DHT22;9499;52.472;13.448;2023-04-06T07:35:40;5.50;1.00
18741;DHT22;9499;52.472;13.448;2023-04-06T07:38:07;5.60;1.00
18741;DHT22;9499;52.472;13.448;2023-04-06T07:40:34;5.60;99.90
18741;DHT22;9499;52.472;13.448;2023-04-06T07:43:01;5.70;1.00
18741;DHT22;9499;52.472;13.448;2023-04-06T07:45:28;5.70;1.00
18741;DHT22;9499;52.472;13.448;2023-04-06T07:47:55;5.80;99.90
18741;DHT22;9499;52.472;13.448;2023-04-06T07:50:21;5.90;96.30
18741;DHT22;9499;52.472;13.448;2023-04-06T07:52:48;6.00;1.00
18741;DHT22;9499;52.472;13.448;2023-04-06T07:55:14;6.10;1.00
18741;DHT22;9499;52.472;13.448;2023-04-06T07:57:42;6.20;1.00
18741;DHT22;9499;52.472;13.448;2023-04-06T08:00:10;6.20;99.90
18741;DHT22;9499;52.472;13.448;2023-04-06T08:02:37;6.30;99.90
18741;DHT22;9499;52.472;13.448;2023-04-06T08:05:04;6.30;99.90
18741;DHT22;9499;52.472;13.448;2023-04-06T08:07:31;6.40;99.90
18741;DHT22;9499;52.472;13.448;2023-04-06T08:09:57;6.50;99.90
18741;DHT22;9499;52.472;13.448;2023-04-06T08:12:24;6.60;12.70
18741;DHT22;9499;52.472;13.448;2023-04-06T08:14:52;6.70;1.00
18741;DHT22;9499;52.472;13.448;2023-04-06T08:17:19;6.80;99.90
18741;DHT22;9499;52.472;13.448;2023-04-06T08:19:45;6.90;99.90
18741;DHT22;9499;52.472;13.448;2023-04-06T08:22:12;6.90;1.00
18741;DHT22;9499;52.472;13.448;2023-04-06T08:24:39;7.00;99.90
18741;DHT22;9499;52.472;13.448;2023-04-06T08:27:05;7.10;36.80
18741;DHT22;9499;52.472;13.448;2023-04-06T08:29:32;7.00;1.00
18741;DHT22;9499;52.472;13.448;2023-04-06T08:32:00;7.00;1.00
18741;DHT22;9499;52.472;13.448;2023-04-06T08:34:30;7.10;1.00
18741;DHT22;9499;52.472;13.448;2023-04-06T08:36:57;7.20;1.00
18741;DHT22;9499;52.472;13.448;2023-04-06T08:39:23;7.40;1.00
18741;DHT22;9499;52.472;13.448;2023-04-06T08:41:51;7.40;1.00
18741;DHT22;9499;52.472;13.448;2023-04-06T08:44:18;7.40;99.90
18741;DHT22;9499;52.472;13.448;2023-04-06T08:46:45;7.50;99.90
18741;DHT22;9499;52.472;13.448;2023-04-06T08:49:14;7.50;99.90
18741;DHT22;9499;52.472;13.448;2023-04-06T08:51:42;7.50;99.90
18741;DHT22;9499;52.472;13.448;2023-04-06T08:54:09;7.60;99.90
18741;DHT22;9499;52.472;13.448;2023-04-06T08:56:38;7.70;99.90
18741;DHT22;9499;52.472;13.448;2023-04-06T08:59:06;7.70;52.00
18741;DHT22;9499;52.472;13.448;2023-04-06T09:01:35;7.80;1.00
18741;DHT22;9499;52.472;13.448;2023-04-06T09:04:07;7.80;1.00
18741;DHT22;9499;52.472;13.448;2023-04-06T09:06:37;7.90;1.00
18741;DHT22;9499;52.472;13.448;2023-04-06T09:09:05;8.00;1.00
18741;DHT22;9499;52.472;13.448;2023-04-06T09:11:42;8.10;1.00
18741;DHT22;9499;52.472;13.448;2023-04-06T09:14:09;8.20;1.00
18741;DHT22;9499;52.472;13.448;2023-04-06T09:16:39;8.20;1.00
18741;DHT22;9499;52.472;13.448;2023-04-06T09:19:06;8.30;1.00
18741;DHT22;9499;52.472;13.448;2023-04-06T09:21:32;8.40;1.00
18741;DHT22;9499;52.472;13.448;2023-04-06T09:24:01;8.40;1.00
18741;DHT22;9499;52.472;13.448;2023-04-06T09:26:27;8.40;1.00
18741;DHT22;9499;52.472;13.448;2023-04-06T09:28:55;8.40;1.00
18741;DHT22;9499;52.472;13.448;2023-04-06T09:31:23;8.40;1.00
18741;DHT22;9499;52.472;13.448;2023-04-06T09:33:50;8.30;1.00
18741;DHT22;9499;52.472;13.448;2023-04-06T09:36:17;8.40;1.00
18741;DHT22;9499;52.472;13.448;2023-04-06T09:38:55;8.50;1.00
18741;DHT22;9499;52.472;13.448;2023-04-06T09:41:24;8.60;1.00
18741;DHT22;9499;52.472;13.448;2023-04-06T09:43:51;8.60;1.00
18741;DHT22;9499;52.472;13.448;2023-04-06T09:46:21;8.80;1.00
18741;DHT22;9499;52.472;13.448;2023-04-06T09:48:49;8.80;1.00
18741;DHT22;9499;52.472;13.448;2023-04-06T09:51:18;9.00;1.00
18741;DHT22;9499;52.472;13.448;2023-04-06T09:53:49;9.00;1.00
18741;DHT22;9499;52.472;13.448;2023-04-06T09:56:22;9.10;1.00
18741;DHT22;9499;52.472;13.448;2023-04-06T09:58:54;9.20;1.00
18741;DHT22;9499;52.472;13.448;2023-04-06T10:01:26;9.40;1.00
18741;DHT22;9499;52.472;13.448;2023-04-06T10:03:58;9.90;1.00
18741;DHT22;9499;52.472;13.448;2023-04-06T10:06:31;10.30;1.00
18741;DHT22;9499;52.472;13.448;2023-04-06T10:09:01;10.70;1.00
18741;DHT22;9499;52.472;13.448;2023-04-06T10:11:28;10.80;1.00
18741;DHT22;9499;52.472;13.448;2023-04-06T10:13:56;10.90;1.00
18741;DHT22;9499;52.472;13.448;2023-04-06T10:16:23;11.00;1.00
18741;DHT22;9499;52.472;13.448;2023-04-06T10:18:56;11.10;1.00
18741;DHT22;9499;52.472;13.448;2023-04-06T10:21:25;11.30;1.00
18741;DHT22;9499;52.472;13.448;2023-04-06T10:23:58;11.30;1.00
18741;DHT22;9499;52.472;13.448;2023-04-06T10:26:25;11.40;1.00
18741;DHT22;9499;52.472;13.448;2023-04-06T10:28:52;11.50;1.00
18741;DHT22;9499;52.472;13.448;2023-04-06T10:31:25;11.80;1.00
18741;DHT22;9499;52.472;13.448;2023-04-06T10:33:56;12.00;1.00
18741;DHT22;9499;52.472;13.448;2023-04-06T10:36:24;12.00;1.00
18741;DHT22;9499;52.472;13.448;2023-04-06T10:38:54;11.60;1.00
18741;DHT22;9499;52.472;13.448;2023-04-06T10:41:21;11.20;1.00
18741;DHT22;9499;52.472;13.448;2023-04-06T10:43:55;11.30;1.00
18741;DHT22;9499;52.472;13.448;2023-04-06T10:46:26;11.60;1.00
18741;DHT22;9499;52.472;13.448;2023-04-06T10:48:53;11.60;1.00
18741;DHT22;9499;52.472;13.448;2023-04-06T10:51:26;11.60;1.00
18741;DHT22;9499;52.472;13.448;2023-04-06T10:53:54;11.80;1.00
18741;DHT22;9499;52.472;13.448;2023-04-06T10:56:22;11.90;1.00
18741;DHT22;9499;52.472;13.448;2023-04-06T10:58:52;12.00;1.00
18741;DHT22;9499;52.472;13.448;2023-04-06T11:01:21;12.10;1.00
18741;DHT22;9499;52.472;13.448;2023-04-06T11:03:50;12.30;1.00
18741;DHT22;9499;52.472;13.448;2023-04-06T11:06:21;12.50;1.00
18741;DHT22;9499;52.472;13.448;2023-04-06T11:08:48;12.80;1.00
18741;DHT22;9499;52.472;13.448;2023-04-06T11:11:16;13.10;1.00
18741;DHT22;9499;52.472;13.448;2023-04-06T11:13:45;13.10;99.90
18741;DHT22;9499;52.472;13.448;2023-04-06T11:16:13;13.20;99.90
18741;DHT22;9499;52.472;13.448;2023-04-06T11:18:52;13.20;99.90
18741;DHT22;9499;52.472;13.448;2023-04-06T11:21:19;13.30;99.90
18741;DHT22;9499;52.472;13.448;2023-04-06T11:23:46;13.30;99.90
18741;DHT22;9499;52.472;13.448;2023-04-06T11:26:13;13.40;99.90
18741;DHT22;9499;52.472;13.448;2023-04-06T11:28:41;13.30;99.90
18741;DHT22;9499;52.472;13.448;2023-04-06T11:31:08;13.50;99.90
18741;DHT22;9499;52.472;13.448;2023-04-06T11:33:36;13.30;99.90
18741;DHT22;9499;52.472;13.448;2023-04-06T11:36:05;13.10;99.90
18741;DHT22;9499;52.472;13.448;2023-04-06T11:38:32;13.00;99.90
18741;DHT22;9499;52.472;13.448;2023-04-06T11:41:01;13.10;99.90
18741;DHT22;9499;52.472;13.448;2023-04-06T11:43:28;13.40;99.90
18741;DHT22;9499;52.472;13.448;2023-04-06T11:46:00;13.60;99.90
18741;DHT22;9499;52.472;13.448;2023-04-06T11:48:28;13.80;99.90
18741;DHT22;9499;52.472;13.448;2023-04-06T11:50:55;13.90;99.90
18741;DHT22;9499;52.472;13.448;2023-04-06T11:53:24;14.20;99.90
18741;DHT22;9499;52.472;13.448;2023-04-06T11:55:51;14.10;99.90
18741;DHT22;9499;52.472;13.448;2023-04-06T11:58:17;14.00;99.90
18741;DHT22;9499;52.472;13.448;2023-04-06T12:00:44;14.20;99.90
18741;DHT22;9499;52.472;13.448;2023-04-06T12:03:10;14.20;99.90
18741;DHT22;9499;52.472;13.448;2023-04-06T12:05:37;14.20;99.90
18741;DHT22;9499;52.472;13.448;2023-04-06T12:08:04;14.10;99.90
18741;DHT22;9499;52.472;13.448;2023-04-06T12:10:32;13.80;99.90
18741;DHT22;9499;52.472;13.448;2023-04-06T12:12:59;13.70;99.90
18741;DHT22;9499;52.472;13.448;2023-04-06T12:15:26;13.80;99.90
18741;DHT22;9499;52.472;13.448;2023-04-06T12:17:52;14.00;99.90
18741;DHT22;9499;52.472;13.448;2023-04-06T12:20:19;14.20;99.90
18741;DHT22;9499;52.472;13.448;2023-04-06T12:22:45;14.40;99.90
18741;DHT22;9499;52.472;13.448;2023-04-06T12:25:12;14.80;99.90
18741;DHT22;9499;52.472;13.448;2023-04-06T12:27:40;14.70;99.90
18741;DHT22;9499;52.472;13.448;2023-04-06T12:30:07;14.60;99.90
18741;DHT22;9499;52.472;13.448;2023-04-06T12:32:34;14.60;99.90
18741;DHT22;9499;52.472;13.448;2023-04-06T12:35:01;14.70;99.90
18741;DHT22;9499;52.472;13.448;2023-04-06T12:37:27;14.50;99.90
18741;DHT22;9499;52.472;13.448;2023-04-06T12:39:54;14.30;99.90
18741;DHT22;9499;52.472;13.448;2023-04-06T12:42:20;14.30;99.90
18741;DHT22;9499;52.472;13.448;2023-04-06T12:44:48;14.40;99.90
18741;DHT22;9499;52.472;13.448;2023-04-06T12:47:15;14.40;99.90
18741;DHT22;9499;52.472;13.448;2023-04-06T12:49:42;14.40;99.90
18741;DHT22;9499;52.472;13.448;2023-04-06T12:52:10;14.30;99.90
18741;DHT22;9499;52.472;13.448;2023-04-06T12:54:37;14.10;99.90
18741;DHT22;9499;52.472;13.448;2023-04-06T12:57:04;14.10;99.90
18741;DHT22;9499;52.472;13.448;2023-04-06T12:59:30;14.20;99.90
18741;DHT22;9499;52.472;13.448;2023-04-06T13:02:01;14.40;99.90
18741;DHT22;9499;52.472;13.448;2023-04-06T13:04:29;14.50;99.90
18741;DHT22;9499;52.472;13.448;2023-04-06T13:06:55;14.70;99.90
18741;DHT22;9499;52.472;13.448;2023-04-06T13:09:22;15.00;99.90
18741;DHT22;9499;52.472;13.448;2023-04-06T13:11:48;15.10;99.90
18741;DHT22;9499;52.472;13.448;2023-04-06T13:14:15;15.00;99.90
18741;DHT22;9499;52.472;13.448;2023-04-06T13:16:41;15.20;99.90
18741;DHT22;9499;52.472;13.448;2023-04-06T13:19:09;15.00;99.90
18741;DHT22;9499;52.472;13.448;2023-04-06T13:21:36;15.10;99.90
18741;DHT22;9499;52.472;13.448;2023-04-06T13:24:03;15.30;99.90
18741;DHT22;9499;52.472;13.448;2023-04-06T13:26:30;15.40;99.90
18741;DHT22;9499;52.472;13.448;2023-04-06T13:28:56;15.60;99.90
18741;DHT22;9499;52.472;13.448;2023-04-06T13:31:23;15.50;99.90
18741;DHT22;9499;52.472;13.448;2023-04-06T13:33:50;15.60;99.90
18741;DHT22;9499;52.472;13.448;2023-04-06T13:36:18;15.90;99.90
18741;DHT22;9499;52.472;13.448;2023-04-06T13:38:44;16.10;99.90
18741;DHT22;9499;52.472;13.448;2023-04-06T13:41:17;16.30;99.90
18741;DHT22;9499;52.472;13.448;2023-04-06T13:43:46;16.30;99.90
18741;DHT22;9499;52.472;13.448;2023-04-06T13:46:12;16.20;99.90
18741;DHT22;9499;52.472;13.448;2023-04-06T13:48:39;16.20;99.90
18741;DHT22;9499;52.472;13.448;2023-04-06T13:51:09;16.20;99.90
18741;DHT22;9499;52.472;13.448;2023-04-06T13:53:37;16.30;99.90
18741;DHT22;9499;52.472;13.448;2023-04-06T13:56:03;16.50;99.90
18741;DHT22;9499;52.472;13.448;2023-04-06T13:58:30;16.60;99.90
18741;DHT22;9499;52.472;13.448;2023-04-06T14:01:02;16.50;99.90
18741;DHT22;9499;52.472;13.448;2023-04-06T14:03:29;16.60;99.90
18741;DHT22;9499;52.472;13.448;2023-04-06T14:05:55;16.70;99.90
18741;DHT22;9499;52.472;13.448;2023-04-06T14:08:22;16.90;99.90
18741;DHT22;9499;52.472;13.448;2023-04-06T14:10:50;17.10;99.90
18741;DHT22;9499;52.472;13.448;2023-04-06T14:13:16;17.10;99.90
18741;DHT22;9499;52.472;13.448;2023-04-06T14:15:44;17.00;99.90
18741;DHT22;9499;52.472;13.448;2023-04-06T14:18:10;17.00;99.90
18741;DHT22;9499;52.472;13.448;2023-04-06T14:20:37;17.00;99.90
18741;DHT22;9499;52.472;13.448;2023-04-06T14:23:03;17.10;99.90
18741;DHT22;9499;52.472;13.448;2023-04-06T14:25:30;17.10;99.90
18741;DHT22;9499;52.472;13.448;2023-04-06T14:27:58;17.00;99.90
18741;DHT22;9499;52.472;13.448;2023-04-06T14:30:25;17.10;99.90
18741;DHT22;9499;52.472;13.448;2023-04-06T14:32:53;16.90;99.90
18741;DHT22;9499;52.472;13.448;2023-04-06T14:35:22;17.00;99.90
18741;DHT22;9499;52.472;13.448;2023-04-06T14:37:50;17.20;99.90
18741;DHT22;9499;52.472;13.448;2023-04-06T14:40:16;17.40;99.90
18741;DHT22;9499;52.472;13.448;2023-04-06T14:42:43;17.50;99.90
18741;DHT22;9499;52.472;13.448;2023-04-06T14:45:11;17.60;99.90
18741;DHT22;9499;52.472;13.448;2023-04-06T14:47:38;17.70;99.90
18741;DHT22;9499;52.472;13.448;2023-04-06T14:50:05;17.70;99.90
18741;DHT22;9499;52.472;13.448;2023-04-06T14:52:32;17.60;99.90
18741;DHT22;9499;52.472;13.448;2023-04-06T14:54:58;17.50;99.90
18741;DHT22;9499;52.472;13.448;2023-04-06T14:57:25;17.50;99.90
18741;DHT22;9499;52.472;13.448;2023-04-06T14:59:53;17.60;99.90
18741;DHT22;9499;52.472;13.448;2023-04-06T15:02:20;17.40;99.90
18741;DHT22;9499;52.472;13.448;2023-04-06T15:04:47;17.20;99.90
18741;DHT22;9499;52.472;13.448;2023-04-06T15:07:14;17.20;99.90
18741;DHT22;9499;52.472;13.448;2023-04-06T15:09:40;17.40;99.90
18741;DHT22;9499;52.472;13.448;2023-04-06T15:12:07;17.40;99.90
18741;DHT22;9499;52.472;13.448;2023-04-06T15:14:33;17.50;99.90
18741;DHT22;9499;52.472;13.448;2023-04-06T15:17:00;17.40;99.90
18741;DHT22;9499;52.472;13.448;2023-04-06T15:19:28;17.50;99.90
18741;DHT22;9499;52.472;13.448;2023-04-06T15:21:54;17.50;99.90
18741;DHT22;9499;52.472;13.448;2023-04-06T15:24:21;17.50;99.90
18741;DHT22;9499;52.472;13.448;2023-04-06T15:26:47;17.20;99.90
18741;DHT22;9499;52.472;13.448;2023-04-06T15:29:14;16.90;99.90
18741;DHT22;9499;52.472;13.448;2023-04-06T15:31:40;16.90;99.90
18741;DHT22;9499;52.472;13.448;2023-04-06T15:34:07;16.90;99.90
18741;DHT22;9499;52.472;13.448;2023-04-06T15:36:35;16.90;99.90
18741;DHT22;9499;52.472;13.448;2023-04-06T15:39:02;17.00;99.90
18741;DHT22;9499;52.472;13.448;2023-04-06T15:41:33;17.00;99.90
18741;DHT22;9499;52.472;13.448;2023-04-06T15:44:01;17.00;99.90
18741;DHT22;9499;52.472;13.448;2023-04-06T15:46:27;17.00;99.90
18741;DHT22;9499;52.472;13.448;2023-04-06T15:48:54;17.00;99.90